Tahitian Princess — ZCDD8 — position and weather

sailwx.info

Track history (hours):
 
Tides and Currents Weather Stations Pressure Air Temp Water Temp Dewpoint Dewpoint Depression Visibility Wind Speed Wind Dir Waves Ship Positions

Tahitian Princess

Operator: P & O Irish Sea Ltd

Last reported at 2018-Jun-22 09:00 UTC. Time now 2018-Jun-22 09:06 UTC.
Position N 53°23' W 005°51'.

Length 167 m; draft 5.8 m.

Type: Passenger vessel. MMSI: 310362000.

Date/timePositionNaut miles runAvg speedWind from/ knotsBaromVisibWave heightAir tempDewpointWater temp
2018-Jun-22 09:00N 53°23' W 005°51'6 1.1
2018-Jun-22 03:21N 53°21' W 006°01'717.8
2018-Jun-22 02:57N 53°24' W 005°50'918.3
2018-Jun-22 02:28N 53°26' W 005°36'5218.0
2018-Jun-21 23:35N 53°34' W 004°09'219.0
2018-Jun-21 23:27N 53°34' W 004°05'818.7
2018-Jun-21 23:00N 53°34' W 003°51'1019.0
2018-Jun-21 22:30N 53°33' W 003°35'918.6
2018-Jun-21 22:01N 53°32' W 003°20'917.0
2018-Jun-21 21:30N 53°30' W 003°06'4 8.4
2018-Jun-21 21:00N 53°27' W 003°01'0 0.7
2018-Jun-21 20:29N 53°27' W 003°01'0 0.1
2018-Jun-21 20:00N 53°27' W 003°01'0 0.0
2018-Jun-21 19:30N 53°27' W 003°01'0 0.0
2018-Jun-21 19:00N 53°27' W 003°01'0 0.0
2018-Jun-21 18:30N 53°27' W 003°01'0 0.0
2018-Jun-21 17:56N 53°27' W 003°01'0 0.0
2018-Jun-21 17:30N 53°27' W 003°01'0 0.0
2018-Jun-21 16:51N 53°27' W 003°01'0 0.0
2018-Jun-21 16:21N 53°27' W 003°01'0 0.0
2018-Jun-21 15:57N 53°27' W 003°01'0 0.9
2018-Jun-21 15:30N 53°27' W 003°01'0 0.4
2018-Jun-21 15:00N 53°27' W 003°01'611.5
2018-Jun-21 14:30N 53°31' W 003°07'918.4
2018-Jun-21 14:00N 53°31' W 003°23'1020.8
2018-Jun-21 13:30N 53°31' W 003°40'1120.8
2018-Jun-21 12:59N 53°34' W 003°58'74 7.9
2018-Jun-21 03:39N 53°21' W 006°00'319.3
2018-Jun-21 03:30N 53°23' W 005°56'1219.5
2018-Jun-21 02:53N 53°26' W 005°36'5218.3
2018-Jun-21 00:02N 53°34' W 004°10'118.9
2018-Jun-21 00:01N 53°34' W 004°09'1019.2
2018-Jun-20 23:30N 53°34' W 003°53'1019.5
2018-Jun-20 23:00N 53°33' W 003°36'1020.1
2018-Jun-20 22:31N 53°32' W 003°20'816.8
2018-Jun-20 22:00N 53°31' W 003°06'5 9.2
2018-Jun-20 21:30N 53°27' W 003°01'0 0.4
2018-Jun-20 21:01N 53°27' W 003°01'0 0.5
2018-Jun-20 20:28N 53°27' W 003°01'0 0.0
2018-Jun-20 19:58N 53°27' W 003°01'0 0.0
2018-Jun-20 19:28N 53°27' W 003°01'0 0.0
2018-Jun-20 18:58N 53°27' W 003°01'0 0.0
2018-Jun-20 18:25N 53°27' W 003°01'0 0.0
2018-Jun-20 17:58N 53°27' W 003°01'0 0.0
2018-Jun-20 17:28N 53°27' W 003°01'0 0.0
2018-Jun-20 16:55N 53°27' W 003°01'0 0.3
2018-Jun-20 16:30N 53°27' W 003°01'1 1.0
2018-Jun-20 16:00N 53°27' W 003°01'0 0.5
2018-Jun-20 15:30N 53°27' W 003°01'4 7.8
2018-Jun-20 15:00N 53°30' W 003°06'5 9.7
2018-Jun-20 14:31N 53°31' W 003°14'918.6
2018-Jun-20 14:00N 53°31' W 003°29'1019.4
2018-Jun-20 13:31N 53°32' W 003°46'1018.8
2018-Jun-20 13:00N 53°34' W 004°01'5917.7
2018-Jun-20 09:40N 53°25' W 005°39'418.2
2018-Jun-20 09:27N 53°24' W 005°45'6 0.9
2018-Jun-20 03:19N 53°23' W 005°55'819.3
2018-Jun-20 02:53N 53°25' W 005°42'6917.8
2018-Jun-19 23:00N 53°34' W 003°46'919.1
2018-Jun-19 22:30N 53°33' W 003°30'918.6
2018-Jun-19 22:00N 53°31' W 003°14'815.3
2018-Jun-19 21:30N 53°28' W 003°03'1 2.6
2018-Jun-19 21:00N 53°27' W 003°01'0 0.9
2018-Jun-19 20:30N 53°27' W 003°01'0 0.0
2018-Jun-19 19:59N 53°27' W 003°01'0 0.0
2018-Jun-19 19:30N 53°27' W 003°01'0 0.0
2018-Jun-19 19:00N 53°27' W 003°01'0 0.0
2018-Jun-19 18:30N 53°27' W 003°01'0 0.0
2018-Jun-19 18:00N 53°27' W 003°01'0 0.0
2018-Jun-19 17:30N 53°27' W 003°01'0 0.0
2018-Jun-19 17:00N 53°27' W 003°01'0 0.0
2018-Jun-19 16:28N 53°27' W 003°01'0 0.4
2018-Jun-19 16:00N 53°27' W 003°01'0 0.6
2018-Jun-19 15:30N 53°27' W 003°01'5 9.4
2018-Jun-19 15:01N 53°30' W 003°06'917.6
2018-Jun-19 14:30N 53°31' W 003°21'1019.6
2018-Jun-19 14:00N 53°31' W 003°38'918.1
2018-Jun-19 13:30N 53°33' W 003°53'80 8.2
2018-Jun-19 03:47N 53°20' W 006°05'720.4
2018-Jun-19 03:28N 53°23' W 005°55'7418.5
2018-Jun-18 23:27N 53°34' W 003°51'818.4
2018-Jun-18 22:59N 53°34' W 003°37'918.6
2018-Jun-18 22:30N 53°32' W 003°23'816.6
2018-Jun-18 22:00N 53°32' W 003°09'713.4
2018-Jun-18 21:30N 53°27' W 003°01'0 0.1
2018-Jun-18 21:00N 53°27' W 003°01'0 0.9
2018-Jun-18 20:30N 53°27' W 003°01'0 0.0
2018-Jun-18 19:59N 53°27' W 003°01'0 0.0
2018-Jun-18 19:28N 53°27' W 003°01'0 0.0
2018-Jun-18 19:00N 53°27' W 003°01'0 0.0
2018-Jun-18 18:30N 53°27' W 003°01'0 0.0
2018-Jun-18 17:59N 53°27' W 003°01'0 0.0
2018-Jun-18 17:19N 53°27' W 003°01'0 0.0
2018-Jun-18 16:57N 53°27' W 003°01'0 0.0
2018-Jun-18 16:30N 53°27' W 003°01'0 0.0
2018-Jun-18 16:00N 53°27' W 003°01'0 0.0
2018-Jun-18 15:30N 53°27' W 003°01'0 0.0
2018-Jun-18 14:53N 53°27' W 003°01'0 0.0
2018-Jun-18 14:30N 53°27' W 003°01'0 0.0
2018-Jun-18 14:00N 53°27' W 003°01'0 0.0
2018-Jun-18 13:30N 53°27' W 003°01'0 0.0
2018-Jun-18 13:00N 53°27' W 003°01'0 0.0
2018-Jun-18 12:23N 53°27' W 003°01'0 0.0
2018-Jun-18 11:48N 53°27' W 003°01'0 0.0
2018-Jun-18 11:28N 53°27' W 003°01'0 0.0
2018-Jun-18 11:00N 53°27' W 003°01'0 0.0
2018-Jun-18 10:30N 53°27' W 003°01'0 0.0
2018-Jun-18 10:00N 53°27' W 003°01'0 0.0
2018-Jun-18 09:30N 53°27' W 003°01'0 0.0
2018-Jun-18 09:00N 53°27' W 003°01'0 0.0
2018-Jun-18 08:30N 53°27' W 003°01'0 0.0
2018-Jun-18 08:00N 53°27' W 003°01'0 0.0
2018-Jun-18 07:23N 53°27' W 003°01'0 0.0
2018-Jun-18 07:00N 53°27' W 003°01'0 0.0
2018-Jun-18 06:30N 53°27' W 003°01'0 0.0
2018-Jun-18 06:00N 53°27' W 003°01'0 0.0
2018-Jun-18 05:29N 53°27' W 003°01'0 0.0
2018-Jun-18 04:57N 53°27' W 003°01'0 0.9
2018-Jun-18 04:30N 53°27' W 003°01'0 0.3
2018-Jun-18 04:01N 53°27' W 003°01'510.9
2018-Jun-18 03:30N 53°31' W 003°07'917.2
2018-Jun-18 03:00N 53°31' W 003°21'815.8
2018-Jun-18 02:30N 53°31' W 003°35'815.6
2018-Jun-18 01:59N 53°31' W 003°48'816.4
2018-Jun-18 01:30N 53°33' W 004°01'1 0.1
2018-Jun-16 23:32N 53°34' W 004°02'016.4
2018-Jun-16 23:30N 53°34' W 004°01'916.4
2018-Jun-16 22:57N 53°34' W 003°46'716.0
2018-Jun-16 22:30N 53°33' W 003°34'816.3
2018-Jun-16 22:00N 53°32' W 003°20'815.6
2018-Jun-16 21:30N 53°31' W 003°08'611.9
2018-Jun-16 21:00N 53°27' W 003°01'0 0.6
2018-Jun-16 20:30N 53°27' W 003°01'0 0.9
2018-Jun-16 20:00N 53°27' W 003°01'0 0.0
2018-Jun-16 19:30N 53°27' W 003°01'0 0.0
2018-Jun-16 18:57N 53°27' W 003°01'0 0.0
2018-Jun-16 18:30N 53°27' W 003°01'0 0.0
2018-Jun-16 18:00N 53°27' W 003°01'0 0.0
2018-Jun-16 17:27N 53°27' W 003°01'0 0.0
2018-Jun-16 17:00N 53°27' W 003°01'0 0.0
2018-Jun-16 16:30N 53°27' W 003°01'0 0.0
2018-Jun-16 16:00N 53°27' W 003°01'0 0.8
2018-Jun-16 15:30N 53°27' W 003°01'0 0.3
2018-Jun-16 15:01N 53°27' W 003°01'611.5
2018-Jun-16 14:31N 53°31' W 003°07'917.1
2018-Jun-16 14:00N 53°32' W 003°22'918.0
2018-Jun-16 13:29N 53°31' W 003°37'816.9
2018-Jun-16 13:00N 53°32' W 003°51'1117.4
2018-Jun-16 12:22N 53°33' W 004°09'6118.7
2018-Jun-16 09:05N 53°23' W 005°51'519.3
2018-Jun-16 08:49N 53°21' W 005°59'8 1.3
2018-Jun-16 02:49N 53°24' W 005°47'7417.9
2018-Jun-15 22:42N 53°34' W 003°45'316.5
2018-Jun-15 22:30N 53°34' W 003°39'816.5
2018-Jun-15 22:01N 53°33' W 003°26'816.3
2018-Jun-15 21:30N 53°32' W 003°12'714.0
2018-Jun-15 21:00N 53°27' W 003°02'1 1.6
2018-Jun-15 20:30N 53°27' W 003°01'0 0.9
2018-Jun-15 20:00N 53°27' W 003°01'0 0.0
2018-Jun-15 19:30N 53°27' W 003°01'0 0.0
2018-Jun-15 19:00N 53°27' W 003°01'0 0.0
2018-Jun-15 18:30N 53°27' W 003°01'0 0.0
2018-Jun-15 17:54N 53°27' W 003°01'0 0.0
2018-Jun-15 17:29N 53°27' W 003°01'0 0.0
2018-Jun-15 16:57N 53°27' W 003°01'0 0.0
2018-Jun-15 16:30N 53°27' W 003°01'0 0.0
2018-Jun-15 16:00N 53°27' W 003°01'0 0.8
2018-Jun-15 15:30N 53°27' W 003°01'0 0.4
2018-Jun-15 15:00N 53°27' W 003°01'611.3
2018-Jun-15 14:30N 53°31' W 003°07'816.5
2018-Jun-15 14:00N 53°31' W 003°21'917.3
2018-Jun-15 13:30N 53°31' W 003°35'816.5
2018-Jun-15 13:00N 53°32' W 003°49'917.4
2018-Jun-15 12:30N 53°33' W 004°04'67 7.0
2018-Jun-15 03:02N 53°23' W 005°54'816.6
2018-Jun-15 02:33N 53°24' W 005°41'6218.4
2018-Jun-14 23:10N 53°34' W 003°57'317.6
2018-Jun-14 23:00N 53°34' W 003°53'917.3
2018-Jun-14 22:30N 53°33' W 003°38'817.2
2018-Jun-14 22:00N 53°33' W 003°24'816.6
2018-Jun-14 21:30N 53°32' W 003°10'714.5
2018-Jun-14 21:00N 53°27' W 003°01'0 0.8
2018-Jun-14 20:30N 53°27' W 003°01'0 0.6
2018-Jun-14 19:54N 53°27' W 003°01'0 0.0
2018-Jun-14 19:30N 53°27' W 003°01'0 0.0
2018-Jun-14 18:51N 53°27' W 003°01'0 0.0
2018-Jun-14 18:30N 53°27' W 003°01'0 0.0
2018-Jun-14 18:00N 53°27' W 003°01'0 0.0
2018-Jun-14 17:30N 53°27' W 003°01'0 0.0
2018-Jun-14 17:01N 53°27' W 003°01'0 0.0
2018-Jun-14 16:30N 53°27' W 003°01'0 0.0
2018-Jun-14 16:00N 53°27' W 003°01'0 0.8
2018-Jun-14 15:31N 53°27' W 003°01'1 1.3
2018-Jun-14 15:00N 53°27' W 003°02'612.9
2018-Jun-14 14:30N 53°32' W 003°10'917.6
2018-Jun-14 13:59N 53°31' W 003°25'918.4
2018-Jun-14 13:30N 53°31' W 003°40'918.7
2018-Jun-14 13:00N 53°32' W 003°56'918.5
2018-Jun-14 12:30N 53°33' W 004°12'66 7.2
2018-Jun-14 03:20N 53°21' W 006°00'617.3
2018-Jun-14 02:59N 53°19' W 005°51'714.3
2018-Jun-14 02:28N 53°20' W 005°39'7117.9
2018-Jun-13 22:31N 53°34' W 003°42'018.2
2018-Jun-13 22:30N 53°34' W 003°42'1018.8
2018-Jun-13 22:00N 53°33' W 003°26'917.8
2018-Jun-13 21:30N 53°32' W 003°11'815.1
2018-Jun-13 21:00N 53°27' W 003°01'0 0.9
2018-Jun-13 20:30N 53°27' W 003°01'0 0.8
2018-Jun-13 19:58N 53°27' W 003°01'0 0.0
2018-Jun-13 19:25N 53°27' W 003°01'0 0.0
2018-Jun-13 18:55N 53°27' W 003°01'0 0.0
2018-Jun-13 18:28N 53°27' W 003°01'0 0.0
2018-Jun-13 17:58N 53°27' W 003°01'0 0.0
2018-Jun-13 17:22N 53°27' W 003°01'0 0.0
2018-Jun-13 16:46N 53°27' W 003°01'0 0.0
2018-Jun-13 16:25N 53°27' W 003°01'0 0.0
2018-Jun-13 16:00N 53°27' W 003°01'0 0.9
2018-Jun-13 15:30N 53°27' W 003°01'1 1.2
2018-Jun-13 15:00N 53°27' W 003°02'712.9
2018-Jun-13 14:30N 53°32' W 003°10'815.8
2018-Jun-13 13:59N 53°31' W 003°24'918.5
2018-Jun-13 13:30N 53°31' W 003°39'918.8
2018-Jun-13 13:00N 53°33' W 003°54'918.4
2018-Jun-13 12:30N 53°35' W 004°09'6519.5
2018-Jun-13 09:10N 53°22' W 005°57'1 0.1
2018-Jun-13 03:10N 53°22' W 005°58'515.7
2018-Jun-13 02:49N 53°24' W 005°49'515.8
2018-Jun-13 02:30N 53°25' W 005°41'815.9
2018-Jun-13 01:59N 53°27' W 005°27'5017.8
2018-Jun-12 23:11N 53°33' W 004°04'717.2
2018-Jun-12 22:46N 53°33' W 003°52'416.7
2018-Jun-12 22:30N 53°33' W 003°44'816.5
2018-Jun-12 22:00N 53°33' W 003°30'816.1
2018-Jun-12 21:30N 53°32' W 003°17'815.6
2018-Jun-12 21:00N 53°29' W 003°05'3 6.1
2018-Jun-12 20:30N 53°27' W 003°01'0 0.9
2018-Jun-12 20:00N 53°27' W 003°01'0 0.0
2018-Jun-12 19:30N 53°27' W 003°01'0 0.0
2018-Jun-12 18:59N 53°27' W 003°01'0 0.0
2018-Jun-12 18:30N 53°27' W 003°01'0 0.0
2018-Jun-12 18:00N 53°27' W 003°01'0 0.0
2018-Jun-12 17:25N 53°27' W 003°01'0 0.0
2018-Jun-12 16:55N 53°27' W 003°01'0 0.0
2018-Jun-12 16:14N 53°27' W 003°01'0 0.1
2018-Jun-12 15:57N 53°27' W 003°01'0 0.9
2018-Jun-12 15:30N 53°27' W 003°01'0 0.2
2018-Jun-12 15:00N 53°27' W 003°01'612.1
2018-Jun-12 14:30N 53°32' W 003°08'714.7
2018-Jun-12 14:00N 53°31' W 003°20'918.6
2018-Jun-12 13:30N 53°31' W 003°36'918.5
2018-Jun-12 13:00N 53°31' W 003°51'918.3
2018-Jun-12 12:30N 53°32' W 004°07'  
Track history (hours):
 
Tides and Currents Weather Stations Pressure Air Temp Water Temp Dewpoint Dewpoint Depression Visibility Wind Speed Wind Dir Waves Ship Positions

Tahitian Princess

Operator: P & O Irish Sea Ltd

Last reported at 2018-Jun-22 09:00 UTC. Time now 2018-Jun-22 09:06 UTC.
Position N 53°23' W 005°51'.

Length 167 m; draft 5.8 m.

Type: Passenger vessel. MMSI: 310362000.

Date/timePositionNaut miles runAvg speedWind from/ knotsBaromVisibWave heightAir tempDewpointWater temp
2018-Jun-22 09:00N 53°23' W 005°51'6 1.1
2018-Jun-22 03:21N 53°21' W 006°01'717.8
2018-Jun-22 02:57N 53°24' W 005°50'918.3
2018-Jun-22 02:28N 53°26' W 005°36'5218.0
2018-Jun-21 23:35N 53°34' W 004°09'219.0
2018-Jun-21 23:27N 53°34' W 004°05'818.7
2018-Jun-21 23:00N 53°34' W 003°51'1019.0
2018-Jun-21 22:30N 53°33' W 003°35'918.6
2018-Jun-21 22:01N 53°32' W 003°20'917.0
2018-Jun-21 21:30N 53°30' W 003°06'4 8.4
2018-Jun-21 21:00N 53°27' W 003°01'0 0.7
2018-Jun-21 20:29N 53°27' W 003°01'0 0.1
2018-Jun-21 20:00N 53°27' W 003°01'0 0.0
2018-Jun-21 19:30N 53°27' W 003°01'0 0.0
2018-Jun-21 19:00N 53°27' W 003°01'0 0.0
2018-Jun-21 18:30N 53°27' W 003°01'0 0.0
2018-Jun-21 17:56N 53°27' W 003°01'0 0.0
2018-Jun-21 17:30N 53°27' W 003°01'0 0.0
2018-Jun-21 16:51N 53°27' W 003°01'0 0.0
2018-Jun-21 16:21N 53°27' W 003°01'0 0.0
2018-Jun-21 15:57N 53°27' W 003°01'0 0.9
2018-Jun-21 15:30N 53°27' W 003°01'0 0.4
2018-Jun-21 15:00N 53°27' W 003°01'611.5
2018-Jun-21 14:30N 53°31' W 003°07'918.4
2018-Jun-21 14:00N 53°31' W 003°23'1020.8
2018-Jun-21 13:30N 53°31' W 003°40'1120.8
2018-Jun-21 12:59N 53°34' W 003°58'74 7.9
2018-Jun-21 03:39N 53°21' W 006°00'319.3
2018-Jun-21 03:30N 53°23' W 005°56'1219.5
2018-Jun-21 02:53N 53°26' W 005°36'5218.3
2018-Jun-21 00:02N 53°34' W 004°10'118.9
2018-Jun-21 00:01N 53°34' W 004°09'1019.2
2018-Jun-20 23:30N 53°34' W 003°53'1019.5
2018-Jun-20 23:00N 53°33' W 003°36'1020.1
2018-Jun-20 22:31N 53°32' W 003°20'816.8
2018-Jun-20 22:00N 53°31' W 003°06'5 9.2
2018-Jun-20 21:30N 53°27' W 003°01'0 0.4
2018-Jun-20 21:01N 53°27' W 003°01'0 0.5
2018-Jun-20 20:28N 53°27' W 003°01'0 0.0
2018-Jun-20 19:58N 53°27' W 003°01'0 0.0
2018-Jun-20 19:28N 53°27' W 003°01'0 0.0
2018-Jun-20 18:58N 53°27' W 003°01'0 0.0
2018-Jun-20 18:25N 53°27' W 003°01'0 0.0
2018-Jun-20 17:58N 53°27' W 003°01'0 0.0
2018-Jun-20 17:28N 53°27' W 003°01'0 0.0
2018-Jun-20 16:55N 53°27' W 003°01'0 0.3
2018-Jun-20 16:30N 53°27' W 003°01'1 1.0
2018-Jun-20 16:00N 53°27' W 003°01'0 0.5
2018-Jun-20 15:30N 53°27' W 003°01'4 7.8
2018-Jun-20 15:00N 53°30' W 003°06'5 9.7
2018-Jun-20 14:31N 53°31' W 003°14'918.6
2018-Jun-20 14:00N 53°31' W 003°29'1019.4
2018-Jun-20 13:31N 53°32' W 003°46'1018.8
2018-Jun-20 13:00N 53°34' W 004°01'5917.7
2018-Jun-20 09:40N 53°25' W 005°39'418.2
2018-Jun-20 09:27N 53°24' W 005°45'6 0.9
2018-Jun-20 03:19N 53°23' W 005°55'819.3
2018-Jun-20 02:53N 53°25' W 005°42'6917.8
2018-Jun-19 23:00N 53°34' W 003°46'919.1
2018-Jun-19 22:30N 53°33' W 003°30'918.6
2018-Jun-19 22:00N 53°31' W 003°14'815.3
2018-Jun-19 21:30N 53°28' W 003°03'1 2.6
2018-Jun-19 21:00N 53°27' W 003°01'0 0.9
2018-Jun-19 20:30N 53°27' W 003°01'0 0.0
2018-Jun-19 19:59N 53°27' W 003°01'0 0.0
2018-Jun-19 19:30N 53°27' W 003°01'0 0.0
2018-Jun-19 19:00N 53°27' W 003°01'0 0.0
2018-Jun-19 18:30N 53°27' W 003°01'0 0.0
2018-Jun-19 18:00N 53°27' W 003°01'0 0.0
2018-Jun-19 17:30N 53°27' W 003°01'0 0.0
2018-Jun-19 17:00N 53°27' W 003°01'0 0.0
2018-Jun-19 16:28N 53°27' W 003°01'0 0.4
2018-Jun-19 16:00N 53°27' W 003°01'0 0.6
2018-Jun-19 15:30N 53°27' W 003°01'5 9.4
2018-Jun-19 15:01N 53°30' W 003°06'917.6
2018-Jun-19 14:30N 53°31' W 003°21'1019.6
2018-Jun-19 14:00N 53°31' W 003°38'918.1
2018-Jun-19 13:30N 53°33' W 003°53'80 8.2
2018-Jun-19 03:47N 53°20' W 006°05'720.4
2018-Jun-19 03:28N 53°23' W 005°55'7418.5
2018-Jun-18 23:27N 53°34' W 003°51'818.4
2018-Jun-18 22:59N 53°34' W 003°37'918.6
2018-Jun-18 22:30N 53°32' W 003°23'816.6
2018-Jun-18 22:00N 53°32' W 003°09'713.4
2018-Jun-18 21:30N 53°27' W 003°01'0 0.1
2018-Jun-18 21:00N 53°27' W 003°01'0 0.9
2018-Jun-18 20:30N 53°27' W 003°01'0 0.0
2018-Jun-18 19:59N 53°27' W 003°01'0 0.0
2018-Jun-18 19:28N 53°27' W 003°01'0 0.0
2018-Jun-18 19:00N 53°27' W 003°01'0 0.0
2018-Jun-18 18:30N 53°27' W 003°01'0 0.0
2018-Jun-18 17:59N 53°27' W 003°01'0 0.0
2018-Jun-18 17:19N 53°27' W 003°01'0 0.0
2018-Jun-18 16:57N 53°27' W 003°01'0 0.0
2018-Jun-18 16:30N 53°27' W 003°01'0 0.0
2018-Jun-18 16:00N 53°27' W 003°01'0 0.0
2018-Jun-18 15:30N 53°27' W 003°01'0 0.0
2018-Jun-18 14:53N 53°27' W 003°01'0 0.0
2018-Jun-18 14:30N 53°27' W 003°01'0 0.0
2018-Jun-18 14:00N 53°27' W 003°01'0 0.0
2018-Jun-18 13:30N 53°27' W 003°01'0 0.0
2018-Jun-18 13:00N 53°27' W 003°01'0 0.0
2018-Jun-18 12:23N 53°27' W 003°01'0 0.0
2018-Jun-18 11:48N 53°27' W 003°01'0 0.0
2018-Jun-18 11:28N 53°27' W 003°01'0 0.0
2018-Jun-18 11:00N 53°27' W 003°01'0 0.0
2018-Jun-18 10:30N 53°27' W 003°01'0 0.0
2018-Jun-18 10:00N 53°27' W 003°01'0 0.0
2018-Jun-18 09:30N 53°27' W 003°01'0 0.0
2018-Jun-18 09:00N 53°27' W 003°01'0 0.0
2018-Jun-18 08:30N 53°27' W 003°01'0 0.0
2018-Jun-18 08:00N 53°27' W 003°01'0 0.0
2018-Jun-18 07:23N 53°27' W 003°01'0 0.0
2018-Jun-18 07:00N 53°27' W 003°01'0 0.0
2018-Jun-18 06:30N 53°27' W 003°01'0 0.0
2018-Jun-18 06:00N 53°27' W 003°01'0 0.0
2018-Jun-18 05:29N 53°27' W 003°01'0 0.0
2018-Jun-18 04:57N 53°27' W 003°01'0 0.9
2018-Jun-18 04:30N 53°27' W 003°01'0 0.3
2018-Jun-18 04:01N 53°27' W 003°01'510.9
2018-Jun-18 03:30N 53°31' W 003°07'917.2
2018-Jun-18 03:00N 53°31' W 003°21'815.8
2018-Jun-18 02:30N 53°31' W 003°35'815.6
2018-Jun-18 01:59N 53°31' W 003°48'816.4
2018-Jun-18 01:30N 53°33' W 004°01'1 0.1
2018-Jun-16 23:32N 53°34' W 004°02'016.4
2018-Jun-16 23:30N 53°34' W 004°01'916.4
2018-Jun-16 22:57N 53°34' W 003°46'716.0
2018-Jun-16 22:30N 53°33' W 003°34'816.3
2018-Jun-16 22:00N 53°32' W 003°20'815.6
2018-Jun-16 21:30N 53°31' W 003°08'611.9
2018-Jun-16 21:00N 53°27' W 003°01'0 0.6
2018-Jun-16 20:30N 53°27' W 003°01'0 0.9
2018-Jun-16 20:00N 53°27' W 003°01'0 0.0
2018-Jun-16 19:30N 53°27' W 003°01'0 0.0
2018-Jun-16 18:57N 53°27' W 003°01'0 0.0
2018-Jun-16 18:30N 53°27' W 003°01'0 0.0
2018-Jun-16 18:00N 53°27' W 003°01'0 0.0
2018-Jun-16 17:27N 53°27' W 003°01'0 0.0
2018-Jun-16 17:00N 53°27' W 003°01'0 0.0
2018-Jun-16 16:30N 53°27' W 003°01'0 0.0
2018-Jun-16 16:00N 53°27' W 003°01'0 0.8
2018-Jun-16 15:30N 53°27' W 003°01'0 0.3
2018-Jun-16 15:01N 53°27' W 003°01'611.5
2018-Jun-16 14:31N 53°31' W 003°07'917.1
2018-Jun-16 14:00N 53°32' W 003°22'918.0
2018-Jun-16 13:29N 53°31' W 003°37'816.9
2018-Jun-16 13:00N 53°32' W 003°51'1117.4
2018-Jun-16 12:22N 53°33' W 004°09'6118.7
2018-Jun-16 09:05N 53°23' W 005°51'519.3
2018-Jun-16 08:49N 53°21' W 005°59'8 1.3
2018-Jun-16 02:49N 53°24' W 005°47'7417.9
2018-Jun-15 22:42N 53°34' W 003°45'316.5
2018-Jun-15 22:30N 53°34' W 003°39'816.5
2018-Jun-15 22:01N 53°33' W 003°26'816.3
2018-Jun-15 21:30N 53°32' W 003°12'714.0
2018-Jun-15 21:00N 53°27' W 003°02'1 1.6
2018-Jun-15 20:30N 53°27' W 003°01'0 0.9
2018-Jun-15 20:00N 53°27' W 003°01'0 0.0
2018-Jun-15 19:30N 53°27' W 003°01'0 0.0
2018-Jun-15 19:00N 53°27' W 003°01'0 0.0
2018-Jun-15 18:30N 53°27' W 003°01'0 0.0
2018-Jun-15 17:54N 53°27' W 003°01'0 0.0
2018-Jun-15 17:29N 53°27' W 003°01'0 0.0
2018-Jun-15 16:57N 53°27' W 003°01'0 0.0
2018-Jun-15 16:30N 53°27' W 003°01'0 0.0
2018-Jun-15 16:00N 53°27' W 003°01'0 0.8
2018-Jun-15 15:30N 53°27' W 003°01'0 0.4
2018-Jun-15 15:00N 53°27' W 003°01'611.3
2018-Jun-15 14:30N 53°31' W 003°07'816.5
2018-Jun-15 14:00N 53°31' W 003°21'917.3
2018-Jun-15 13:30N 53°31' W 003°35'816.5
2018-Jun-15 13:00N 53°32' W 003°49'917.4
2018-Jun-15 12:30N 53°33' W 004°04'67 7.0
2018-Jun-15 03:02N 53°23' W 005°54'816.6
2018-Jun-15 02:33N 53°24' W 005°41'6218.4
2018-Jun-14 23:10N 53°34' W 003°57'317.6
2018-Jun-14 23:00N 53°34' W 003°53'917.3
2018-Jun-14 22:30N 53°33' W 003°38'817.2
2018-Jun-14 22:00N 53°33' W 003°24'816.6
2018-Jun-14 21:30N 53°32' W 003°10'714.5
2018-Jun-14 21:00N 53°27' W 003°01'0 0.8
2018-Jun-14 20:30N 53°27' W 003°01'0 0.6
2018-Jun-14 19:54N 53°27' W 003°01'0 0.0
2018-Jun-14 19:30N 53°27' W 003°01'0 0.0
2018-Jun-14 18:51N 53°27' W 003°01'0 0.0
2018-Jun-14 18:30N 53°27' W 003°01'0 0.0
2018-Jun-14 18:00N 53°27' W 003°01'0 0.0
2018-Jun-14 17:30N 53°27' W 003°01'0 0.0
2018-Jun-14 17:01N 53°27' W 003°01'0 0.0
2018-Jun-14 16:30N 53°27' W 003°01'0 0.0
2018-Jun-14 16:00N 53°27' W 003°01'0 0.8
2018-Jun-14 15:31N 53°27' W 003°01'1 1.3
2018-Jun-14 15:00N 53°27' W 003°02'612.9
2018-Jun-14 14:30N 53°32' W 003°10'917.6
2018-Jun-14 13:59N 53°31' W 003°25'918.4
2018-Jun-14 13:30N 53°31' W 003°40'918.7
2018-Jun-14 13:00N 53°32' W 003°56'918.5
2018-Jun-14 12:30N 53°33' W 004°12'66 7.2
2018-Jun-14 03:20N 53°21' W 006°00'617.3
2018-Jun-14 02:59N 53°19' W 005°51'714.3
2018-Jun-14 02:28N 53°20' W 005°39'7117.9
2018-Jun-13 22:31N 53°34' W 003°42'018.2
2018-Jun-13 22:30N 53°34' W 003°42'1018.8
2018-Jun-13 22:00N 53°33' W 003°26'917.8
2018-Jun-13 21:30N 53°32' W 003°11'815.1
2018-Jun-13 21:00N 53°27' W 003°01'0 0.9
2018-Jun-13 20:30N 53°27' W 003°01'0 0.8
2018-Jun-13 19:58N 53°27' W 003°01'0 0.0
2018-Jun-13 19:25N 53°27' W 003°01'0 0.0
2018-Jun-13 18:55N 53°27' W 003°01'0 0.0
2018-Jun-13 18:28N 53°27' W 003°01'0 0.0
2018-Jun-13 17:58N 53°27' W 003°01'0 0.0
2018-Jun-13 17:22N 53°27' W 003°01'0 0.0
2018-Jun-13 16:46N 53°27' W 003°01'0 0.0
2018-Jun-13 16:25N 53°27' W 003°01'0 0.0
2018-Jun-13 16:00N 53°27' W 003°01'0 0.9
2018-Jun-13 15:30N 53°27' W 003°01'1 1.2
2018-Jun-13 15:00N 53°27' W 003°02'712.9
2018-Jun-13 14:30N 53°32' W 003°10'815.8
2018-Jun-13 13:59N 53°31' W 003°24'918.5
2018-Jun-13 13:30N 53°31' W 003°39'918.8
2018-Jun-13 13:00N 53°33' W 003°54'918.4
2018-Jun-13 12:30N 53°35' W 004°09'6519.5
2018-Jun-13 09:10N 53°22' W 005°57'1 0.1
2018-Jun-13 03:10N 53°22' W 005°58'515.7
2018-Jun-13 02:49N 53°24' W 005°49'515.8
2018-Jun-13 02:30N 53°25' W 005°41'815.9
2018-Jun-13 01:59N 53°27' W 005°27'5017.8
2018-Jun-12 23:11N 53°33' W 004°04'717.2
2018-Jun-12 22:46N 53°33' W 003°52'416.7
2018-Jun-12 22:30N 53°33' W 003°44'816.5
2018-Jun-12 22:00N 53°33' W 003°30'816.1
2018-Jun-12 21:30N 53°32' W 003°17'815.6
2018-Jun-12 21:00N 53°29' W 003°05'3 6.1
2018-Jun-12 20:30N 53°27' W 003°01'0 0.9
2018-Jun-12 20:00N 53°27' W 003°01'0 0.0
2018-Jun-12 19:30N 53°27' W 003°01'0 0.0
2018-Jun-12 18:59N 53°27' W 003°01'0 0.0
2018-Jun-12 18:30N 53°27' W 003°01'0 0.0
2018-Jun-12 18:00N 53°27' W 003°01'0 0.0
2018-Jun-12 17:25N 53°27' W 003°01'0 0.0
2018-Jun-12 16:55N 53°27' W 003°01'0 0.0
2018-Jun-12 16:14N 53°27' W 003°01'0 0.1
2018-Jun-12 15:57N 53°27' W 003°01'0 0.9
2018-Jun-12 15:30N 53°27' W 003°01'0 0.2
2018-Jun-12 15:00N 53°27' W 003°01'612.1
2018-Jun-12 14:30N 53°32' W 003°08'714.7
2018-Jun-12 14:00N 53°31' W 003°20'918.6
2018-Jun-12 13:30N 53°31' W 003°36'918.5
2018-Jun-12 13:00N 53°31' W 003°51'918.3
2018-Jun-12 12:30N 53°32' W 004°07'  

Dump ship's entire track history